Shepherdstown, Pennsylvania
Current Conditions -  °F | °C
As of 10:56 PM on Tuesday 21 Oct 2014 (Local Time) from KCXY Reporting Station
Broken Clouds Broken Clouds  
Wind Chill: 53°   Ceiling: 6000
Heat Index: 53°   Visibility: 10mi
Dew Point: 48°   Wind: 6mph
Humidity: 83%   Direction: 270°W
Pressure: 29.93"   Gusts: NA
Location:  40.208°N, 77.0098°W
Report Text: KCXY 220256Z AUTO 27005KT 10SM BKN060 12/09 A2993 RMK AO2 SLP136 T01170089 51014
Loading
Personal Weather Stations






























Interactive Weather Map
Tropical Storm Tracking
New forecast layout! Learn more

10-Day Weather Forecast

Advertisements
Track Severe Weather on mobile